sensor_id;sensor_type;location;lat;lon;timestamp;pressure;altitude;pressure_sealevel;temperature;humidity
38880;BME280;25887;30.194;-97.880;2023-02-19T00:00:15;99298.72;;;15.57;33.38
38880;BME280;25887;30.194;-97.880;2023-02-19T00:02:41;99292.66;;;15.55;33.30
38880;BME280;25887;30.194;-97.880;2023-02-19T00:05:27;99306.50;;;15.53;33.63
38880;BME280;25887;30.194;-97.880;2023-02-19T00:08:07;99348.81;;;15.52;33.58
38880;BME280;25887;30.194;-97.880;2023-02-19T00:10:32;99383.34;;;15.52;33.47
38880;BME280;25887;30.194;-97.880;2023-02-19T00:12:58;99388.53;;;15.52;33.66
38880;BME280;25887;30.194;-97.880;2023-02-19T00:15:24;99356.59;;;15.50;33.63
38880;BME280;25887;30.194;-97.880;2023-02-19T00:17:50;99375.59;;;15.51;33.70
38880;BME280;25887;30.194;-97.880;2023-02-19T00:20:18;99373.00;;;15.49;33.77
38880;BME280;25887;30.194;-97.880;2023-02-19T00:25:41;99349.69;;;15.46;33.88
38880;BME280;25887;30.194;-97.880;2023-02-19T00:31:18;99326.41;;;15.43;33.94
38880;BME280;25887;30.194;-97.880;2023-02-19T00:33:44;99348.84;;;15.40;33.77
38880;BME280;25887;30.194;-97.880;2023-02-19T00:36:11;99368.72;;;15.38;33.79
38880;BME280;25887;30.194;-97.880;2023-02-19T00:38:37;99379.09;;;15.38;33.95
38880;BME280;25887;30.194;-97.880;2023-02-19T00:41:04;99363.56;;;15.36;33.95
38880;BME280;25887;30.194;-97.880;2023-02-19T00:49:32;99337.72;;;15.27;34.12
38880;BME280;25887;30.194;-97.880;2023-02-19T00:51:58;99362.72;;;15.25;34.26
38880;BME280;25887;30.194;-97.880;2023-02-19T00:54:24;99371.38;;;15.22;33.89
38880;BME280;25887;30.194;-97.880;2023-02-19T00:56:50;99374.81;;;15.21;34.12
38880;BME280;25887;30.194;-97.880;2023-02-19T00:59:16;99344.63;;;15.19;34.11
38880;BME280;25887;30.194;-97.880;2023-02-19T01:01:42;99369.63;;;15.17;34.30
38880;BME280;25887;30.194;-97.880;2023-02-19T01:04:08;99348.94;;;15.14;33.99
38880;BME280;25887;30.194;-97.880;2023-02-19T01:06:35;99354.16;;;15.11;34.38
38880;BME280;25887;30.194;-97.880;2023-02-19T01:09:03;99348.94;;;15.09;34.14
38880;BME280;25887;30.194;-97.880;2023-02-19T01:11:29;99337.75;;;15.05;34.40
38880;BME280;25887;30.194;-97.880;2023-02-19T01:13:56;99364.50;;;15.01;34.47
38880;BME280;25887;30.194;-97.880;2023-02-19T01:16:22;99375.75;;;14.97;34.38
38880;BME280;25887;30.194;-97.880;2023-02-19T01:18:49;99389.56;;;14.95;34.44
38880;BME280;25887;30.194;-97.880;2023-02-19T01:21:19;99380.06;;;14.92;34.35
38880;BME280;25887;30.194;-97.880;2023-02-19T01:23:47;99397.31;;;14.90;34.56
38880;BME280;25887;30.194;-97.880;2023-02-19T01:26:14;99394.75;;;14.87;34.79
38880;BME280;25887;30.194;-97.880;2023-02-19T01:28:59;99401.63;;;14.84;34.90
38880;BME280;25887;30.194;-97.880;2023-02-19T01:31:26;99384.41;;;14.80;34.69
38880;BME280;25887;30.194;-97.880;2023-02-19T01:33:53;99394.72;;;14.76;34.73
38880;BME280;25887;30.194;-97.880;2023-02-19T01:36:19;99372.31;;;14.74;34.86
38880;BME280;25887;30.194;-97.880;2023-02-19T01:39:00;99383.53;;;14.71;34.83
38880;BME280;25887;30.194;-97.880;2023-02-19T01:41:28;99361.09;;;14.69;34.81
38880;BME280;25887;30.194;-97.880;2023-02-19T01:46:19;99351.63;;;14.59;35.03
38880;BME280;25887;30.194;-97.880;2023-02-19T01:51:51;99416.28;;;14.51;35.17
38880;BME280;25887;30.194;-97.880;2023-02-19T01:54:23;99422.31;;;14.48;35.23
38880;BME280;25887;30.194;-97.880;2023-02-19T01:56:50;99424.88;;;14.47;35.19
38880;BME280;25887;30.194;-97.880;2023-02-19T01:59:15;99433.47;;;14.44;35.30
38880;BME280;25887;30.194;-97.880;2023-02-19T02:01:43;99438.66;;;14.43;35.28
38880;BME280;25887;30.194;-97.880;2023-02-19T02:04:09;99423.16;;;14.41;35.38
38880;BME280;25887;30.194;-97.880;2023-02-19T02:06:44;99397.28;;;14.37;35.68
38880;BME280;25887;30.194;-97.880;2023-02-19T02:09:24;99398.97;;;14.30;35.57
38880;BME280;25887;30.194;-97.880;2023-02-19T02:12:09;99457.59;;;14.27;35.91
38880;BME280;25887;30.194;-97.880;2023-02-19T02:14:38;99417.09;;;14.26;35.75
38880;BME280;25887;30.194;-97.880;2023-02-19T02:32:32;99429.09;;;14.08;36.00
38880;BME280;25887;30.194;-97.880;2023-02-19T02:35:08;99417.88;;;14.08;36.06
38880;BME280;25887;30.194;-97.880;2023-02-19T02:37:36;99398.09;;;14.05;35.90
38880;BME280;25887;30.194;-97.880;2023-02-19T02:40:03;99419.63;;;14.04;36.31
38880;BME280;25887;30.194;-97.880;2023-02-19T02:42:29;99441.16;;;14.03;35.99
38880;BME280;25887;30.194;-97.880;2023-02-19T02:44:55;99448.03;;;14.01;36.15
38880;BME280;25887;30.194;-97.880;2023-02-19T02:47:47;99454.91;;;13.99;36.38
38880;BME280;25887;30.194;-97.880;2023-02-19T02:53:02;99458.34;;;13.95;36.47
38880;BME280;25887;30.194;-97.880;2023-02-19T02:56:03;99464.34;;;13.92;36.53
38880;BME280;25887;30.194;-97.880;2023-02-19T02:58:29;99448.84;;;13.92;36.20
38880;BME280;25887;30.194;-97.880;2023-02-19T03:01:00;99451.44;;;13.91;36.53
38880;BME280;25887;30.194;-97.880;2023-02-19T03:03:46;99443.69;;;13.86;36.34
38880;BME280;25887;30.194;-97.880;2023-02-19T03:09:14;99437.63;;;13.80;36.75
38880;BME280;25887;30.194;-97.880;2023-02-19T03:11:42;99438.47;;;13.77;36.62
38880;BME280;25887;30.194;-97.880;2023-02-19T03:14:33;99445.34;;;13.74;36.73
38880;BME280;25887;30.194;-97.880;2023-02-19T03:17:25;99441.88;;;13.67;36.63
38880;BME280;25887;30.194;-97.880;2023-02-19T03:20:12;99441.00;;;13.62;36.76
38880;BME280;25887;30.194;-97.880;2023-02-19T03:22:40;99435.81;;;13.59;36.76
38880;BME280;25887;30.194;-97.880;2023-02-19T03:25:11;99410.84;;;13.55;36.97
38880;BME280;25887;30.194;-97.880;2023-02-19T03:27:56;99422.00;;;13.49;36.80
38880;BME280;25887;30.194;-97.880;2023-02-19T03:30:24;99440.91;;;13.47;37.09
38880;BME280;25887;30.194;-97.880;2023-02-19T03:33:00;99450.34;;;13.46;37.03
38880;BME280;25887;30.194;-97.880;2023-02-19T03:35:33;99448.63;;;13.44;37.04
38880;BME280;25887;30.194;-97.880;2023-02-19T03:40:52;99440.88;;;13.42;37.12
38880;BME280;25887;30.194;-97.880;2023-02-19T03:43:20;99463.25;;;13.38;36.97
38880;BME280;25887;30.194;-97.880;2023-02-19T03:46:03;99457.19;;;13.35;36.89
38880;BME280;25887;30.194;-97.880;2023-02-19T03:48:35;99461.44;;;13.28;37.29
38880;BME280;25887;30.194;-97.880;2023-02-19T03:53:49;99443.28;;;13.16;37.58
38880;BME280;25887;30.194;-97.880;2023-02-19T03:58:48;99432.06;;;13.11;37.68
38880;BME280;25887;30.194;-97.880;2023-02-19T04:01:27;99420.88;;;13.09;37.36
38880;BME280;25887;30.194;-97.880;2023-02-19T04:03:56;99398.50;;;13.08;37.77
38880;BME280;25887;30.194;-97.880;2023-02-19T04:06:25;99383.84;;;13.07;37.40
38880;BME280;25887;30.194;-97.880;2023-02-19T04:08:52;99391.63;;;13.10;37.49
38880;BME280;25887;30.194;-97.880;2023-02-19T04:11:19;99394.22;;;13.08;37.30
38880;BME280;25887;30.194;-97.880;2023-02-19T04:16:47;99411.38;;;13.06;37.60
38880;BME280;25887;30.194;-97.880;2023-02-19T04:19:16;99426.84;;;13.05;37.63
38880;BME280;25887;30.194;-97.880;2023-02-19T04:21:43;99434.59;;;13.05;37.85
38880;BME280;25887;30.194;-97.880;2023-02-19T04:24:39;99432.88;;;13.07;37.55
38880;BME280;25887;30.194;-97.880;2023-02-19T04:29:55;99400.19;;;13.04;37.82
38880;BME280;25887;30.194;-97.880;2023-02-19T04:32:21;99370.94;;;13.02;37.83
38880;BME280;25887;30.194;-97.880;2023-02-19T04:34:47;99378.69;;;13.02;37.68
38880;BME280;25887;30.194;-97.880;2023-02-19T04:37:13;99416.53;;;13.02;38.15
38880;BME280;25887;30.194;-97.880;2023-02-19T04:39:39;99433.72;;;13.03;38.14
38880;BME280;25887;30.194;-97.880;2023-02-19T04:42:22;99432.84;;;13.01;37.75
38880;BME280;25887;30.194;-97.880;2023-02-19T04:44:48;99456.03;;;12.99;38.13
38880;BME280;25887;30.194;-97.880;2023-02-19T04:47:13;99441.41;;;12.97;37.91
38880;BME280;25887;30.194;-97.880;2023-02-19T04:49:42;99448.28;;;12.95;38.26
38880;BME280;25887;30.194;-97.880;2023-02-19T04:52:08;99449.13;;;12.92;37.98
38880;BME280;25887;30.194;-97.880;2023-02-19T04:55:12;99407.81;;;12.88;38.37
38880;BME280;25887;30.194;-97.880;2023-02-19T04:57:38;99345.06;;;12.84;38.43
38880;BME280;25887;30.194;-97.880;2023-02-19T05:00:04;99366.50;;;12.78;38.39
38880;BME280;25887;30.194;-97.880;2023-02-19T05:02:48;99407.72;;;12.75;38.22
38880;BME280;25887;30.194;-97.880;2023-02-19T05:05:14;99425.75;;;12.74;38.12
38880;BME280;25887;30.194;-97.880;2023-02-19T05:07:40;99410.28;;;12.72;38.13
38880;BME280;25887;30.194;-97.880;2023-02-19T05:10:09;99412.84;;;12.69;38.21
38880;BME280;25887;30.194;-97.880;2023-02-19T05:12:39;99421.41;;;12.67;38.11
38880;BME280;25887;30.194;-97.880;2023-02-19T05:18:04;99436.84;;;12.64;38.45
38880;BME280;25887;30.194;-97.880;2023-02-19T05:20:30;99429.09;;;12.61;38.67
38880;BME280;25887;30.194;-97.880;2023-02-19T05:23:00;99421.34;;;12.59;38.32
38880;BME280;25887;30.194;-97.880;2023-02-19T05:25:26;99380.94;;;12.57;38.75
38880;BME280;25887;30.194;-97.880;2023-02-19T05:27:52;99387.78;;;12.53;38.76
38880;BME280;25887;30.194;-97.880;2023-02-19T05:30:37;99403.22;;;12.51;38.42
38880;BME280;25887;30.194;-97.880;2023-02-19T05:33:03;99397.19;;;12.49;38.65
38880;BME280;25887;30.194;-97.880;2023-02-19T05:35:29;99411.81;;;12.49;38.58
38880;BME280;25887;30.194;-97.880;2023-02-19T05:37:57;99416.09;;;12.48;38.74
38880;BME280;25887;30.194;-97.880;2023-02-19T05:40:23;99418.69;;;12.50;38.77
38880;BME280;25887;30.194;-97.880;2023-02-19T05:42:49;99428.16;;;12.52;38.90
38880;BME280;25887;30.194;-97.880;2023-02-19T05:45:14;99422.16;;;12.53;39.11
38880;BME280;25887;30.194;-97.880;2023-02-19T05:47:40;99415.28;;;12.54;39.02
38880;BME280;25887;30.194;-97.880;2023-02-19T05:50:06;99413.59;;;12.54;38.68
38880;BME280;25887;30.194;-97.880;2023-02-19T05:52:32;99405.84;;;12.54;39.08
38880;BME280;25887;30.194;-97.880;2023-02-19T05:54:58;99384.38;;;12.54;39.05
38880;BME280;25887;30.194;-97.880;2023-02-19T06:00:27;99350.84;;;12.54;38.85
38880;BME280;25887;30.194;-97.880;2023-02-19T06:02:53;99349.13;;;12.54;39.31
38880;BME280;25887;30.194;-97.880;2023-02-19T06:05:19;99337.09;;;12.53;38.88
38880;BME280;25887;30.194;-97.880;2023-02-19T06:07:45;99364.59;;;12.53;39.12
38880;BME280;25887;30.194;-97.880;2023-02-19T06:10:11;99368.84;;;12.51;39.35
38880;BME280;25887;30.194;-97.880;2023-02-19T06:12:38;99372.28;;;12.50;39.17
38880;BME280;25887;30.194;-97.880;2023-02-19T06:15:04;99380.88;;;12.49;39.26
38880;BME280;25887;30.194;-97.880;2023-02-19T06:17:31;99385.16;;;12.47;39.16
38880;BME280;25887;30.194;-97.880;2023-02-19T06:19:57;99371.38;;;12.45;39.34
38880;BME280;25887;30.194;-97.880;2023-02-19T06:22:43;99387.69;;;12.44;39.07
38880;BME280;25887;30.194;-97.880;2023-02-19T06:25:10;99396.28;;;12.43;39.03
38880;BME280;25887;30.194;-97.880;2023-02-19T06:27:37;99395.41;;;12.42;39.20
38880;BME280;25887;30.194;-97.880;2023-02-19T06:30:03;99394.56;;;12.42;39.36
38880;BME280;25887;30.194;-97.880;2023-02-19T06:32:32;99391.97;;;12.42;39.28
38880;BME280;25887;30.194;-97.880;2023-02-19T06:34:58;99385.94;;;12.38;39.58
38880;BME280;25887;30.194;-97.880;2023-02-19T06:37:24;99399.69;;;12.39;39.34
38880;BME280;25887;30.194;-97.880;2023-02-19T06:39:49;99390.25;;;12.39;39.61
38880;BME280;25887;30.194;-97.880;2023-02-19T06:42:15;99357.59;;;12.40;39.64
38880;BME280;25887;30.194;-97.880;2023-02-19T06:47:47;99351.53;;;12.33;39.87
38880;BME280;25887;30.194;-97.880;2023-02-19T06:50:19;99345.50;;;12.31;39.82
38880;BME280;25887;30.194;-97.880;2023-02-19T06:52:44;99358.38;;;12.30;39.54
38880;BME280;25887;30.194;-97.880;2023-02-19T06:55:10;99366.94;;;12.28;39.78
38880;BME280;25887;30.194;-97.880;2023-02-19T06:57:36;99375.53;;;12.27;39.63
38880;BME280;25887;30.194;-97.880;2023-02-19T07:00:02;99378.09;;;12.27;39.80
38880;BME280;25887;30.194;-97.880;2023-02-19T07:02:28;99379.81;;;12.25;39.79
38880;BME280;25887;30.194;-97.880;2023-02-19T07:04:54;99366.06;;;12.25;39.51
38880;BME280;25887;30.194;-97.880;2023-02-19T07:07:20;99362.63;;;12.24;39.88
38880;BME280;25887;30.194;-97.880;2023-02-19T07:10:24;99362.63;;;12.24;40.09
38880;BME280;25887;30.194;-97.880;2023-02-19T07:12:52;99350.59;;;12.23;40.18
38880;BME280;25887;30.194;-97.880;2023-02-19T07:15:18;99339.44;;;12.24;39.90
38880;BME280;25887;30.194;-97.880;2023-02-19T07:17:44;99339.44;;;12.24;40.10
38880;BME280;25887;30.194;-97.880;2023-02-19T07:20:10;99354.91;;;12.26;39.81
38880;BME280;25887;30.194;-97.880;2023-02-19T07:22:36;99343.75;;;12.27;40.14
38880;BME280;25887;30.194;-97.880;2023-02-19T07:25:02;99346.31;;;12.27;40.10
38880;BME280;25887;30.194;-97.880;2023-02-19T07:27:27;99340.31;;;12.28;40.01
38880;BME280;25887;30.194;-97.880;2023-02-19T07:29:53;99322.28;;;12.28;40.31
38880;BME280;25887;30.194;-97.880;2023-02-19T07:32:19;99324.00;;;12.27;40.36
38880;BME280;25887;30.194;-97.880;2023-02-19T07:34:45;99316.28;;;12.27;40.48
38880;BME280;25887;30.194;-97.880;2023-02-19T07:37:11;99334.31;;;12.27;40.19
38880;BME280;25887;30.194;-97.880;2023-02-19T07:39:37;99330.88;;;12.28;40.25
38880;BME280;25887;30.194;-97.880;2023-02-19T07:42:02;99321.44;;;12.29;40.15
38880;BME280;25887;30.194;-97.880;2023-02-19T07:44:28;99311.16;;;12.31;40.64
38880;BME280;25887;30.194;-97.880;2023-02-19T07:46:54;99308.59;;;12.32;40.43
38880;BME280;25887;30.194;-97.880;2023-02-19T07:49:20;99303.44;;;12.32;40.27
38880;BME280;25887;30.194;-97.880;2023-02-19T07:52:04;99314.59;;;12.33;40.50
38880;BME280;25887;30.194;-97.880;2023-02-19T07:54:48;99308.59;;;12.34;40.73
38880;BME280;25887;30.194;-97.880;2023-02-19T07:57:14;99293.13;;;12.34;40.66
38880;BME280;25887;30.194;-97.880;2023-02-19T07:59:40;99295.72;;;12.35;40.78
38880;BME280;25887;30.194;-97.880;2023-02-19T08:02:15;99300.00;;;12.35;40.56
38880;BME280;25887;30.194;-97.880;2023-02-19T08:05:00;99300.88;;;12.37;40.54
38880;BME280;25887;30.194;-97.880;2023-02-19T08:07:35;99293.16;;;12.37;40.86
38880;BME280;25887;30.194;-97.880;2023-02-19T08:10:36;99289.75;;;12.38;40.57
38880;BME280;25887;30.194;-97.880;2023-02-19T08:13:20;99294.91;;;12.38;40.91
38880;BME280;25887;30.194;-97.880;2023-02-19T08:15:48;99282.88;;;12.40;40.85
38880;BME280;25887;30.194;-97.880;2023-02-19T08:18:15;99276.00;;;12.42;41.03
38880;BME280;25887;30.194;-97.880;2023-02-19T08:20:41;99276.00;;;12.42;40.64
38880;BME280;25887;30.194;-97.880;2023-02-19T08:23:27;99266.56;;;12.44;40.83
38880;BME280;25887;30.194;-97.880;2023-02-19T08:25:56;99244.22;;;12.44;41.04
38880;BME280;25887;30.194;-97.880;2023-02-19T08:28:22;99246.84;;;12.46;41.17
38880;BME280;25887;30.194;-97.880;2023-02-19T08:30:48;99251.16;;;12.47;41.00
38880;BME280;25887;30.194;-97.880;2023-02-19T08:33:25;99247.72;;;12.48;41.37
38880;BME280;25887;30.194;-97.880;2023-02-19T08:35:50;99231.38;;;12.49;41.47
38880;BME280;25887;30.194;-97.880;2023-02-19T08:38:16;99226.25;;;12.49;41.48
38880;BME280;25887;30.194;-97.880;2023-02-19T08:43:42;99215.06;;;12.50;41.25
38880;BME280;25887;30.194;-97.880;2023-02-19T08:46:08;99204.75;;;12.50;41.26
38880;BME280;25887;30.194;-97.880;2023-02-19T08:48:37;99192.72;;;12.50;41.45
38880;BME280;25887;30.194;-97.880;2023-02-19T08:51:04;99186.72;;;12.51;41.51
38880;BME280;25887;30.194;-97.880;2023-02-19T08:53:32;99198.75;;;12.52;41.76
38880;BME280;25887;30.194;-97.880;2023-02-19T08:56:03;99200.50;;;12.55;41.86
38880;BME280;25887;30.194;-97.880;2023-02-19T08:58:29;99200.50;;;12.57;41.88
38880;BME280;25887;30.194;-97.880;2023-02-19T09:00:57;99197.06;;;12.59;41.52
38880;BME280;25887;30.194;-97.880;2023-02-19T09:03:22;99199.69;;;12.61;41.97
38880;BME280;25887;30.194;-97.880;2023-02-19T09:06:09;99197.97;;;12.63;42.07
38880;BME280;25887;30.194;-97.880;2023-02-19T09:08:56;99190.22;;;12.66;41.95
38880;BME280;25887;30.194;-97.880;2023-02-19T09:11:21;99199.72;;;12.70;41.98
38880;BME280;25887;30.194;-97.880;2023-02-19T09:13:47;99188.56;;;12.72;42.29
38880;BME280;25887;30.194;-97.880;2023-02-19T09:16:13;99193.72;;;12.75;42.63
38880;BME280;25887;30.194;-97.880;2023-02-19T09:18:39;99183.44;;;12.78;42.74
38880;BME280;25887;30.194;-97.880;2023-02-19T09:21:05;99183.41;;;12.83;42.80
38880;BME280;25887;30.194;-97.880;2023-02-19T09:24:07;99180.88;;;12.88;43.52
38880;BME280;25887;30.194;-97.880;2023-02-19T09:26:50;99168.00;;;12.92;43.58
38880;BME280;25887;30.194;-97.880;2023-02-19T09:29:16;99166.28;;;12.96;43.94
38880;BME280;25887;30.194;-97.880;2023-02-19T09:31:42;99164.59;;;13.01;44.17
38880;BME280;25887;30.194;-97.880;2023-02-19T09:34:08;99168.88;;;13.05;44.28
38880;BME280;25887;30.194;-97.880;2023-02-19T09:36:36;99173.22;;;13.09;43.93
38880;BME280;25887;30.194;-97.880;2023-02-19T09:39:02;99160.31;;;13.12;44.53
38880;BME280;25887;30.194;-97.880;2023-02-19T09:41:57;99139.69;;;13.17;44.50
38880;BME280;25887;30.194;-97.880;2023-02-19T09:44:29;99132.84;;;13.20;44.69
38880;BME280;25887;30.194;-97.880;2023-02-19T09:46:56;99123.38;;;13.25;44.78
38880;BME280;25887;30.194;-97.880;2023-02-19T09:49:28;99135.41;;;13.29;44.53
38880;BME280;25887;30.194;-97.880;2023-02-19T09:51:56;99142.31;;;13.32;45.02
38880;BME280;25887;30.194;-97.880;2023-02-19T09:54:25;99131.13;;;13.34;45.23
38880;BME280;25887;30.194;-97.880;2023-02-19T09:57:12;99140.63;;;13.38;45.34
38880;BME280;25887;30.194;-97.880;2023-02-19T09:59:49;99145.78;;;13.42;44.92
38880;BME280;25887;30.194;-97.880;2023-02-19T10:02:22;99144.91;;;13.44;45.63
38880;BME280;25887;30.194;-97.880;2023-02-19T10:04:48;99147.50;;;13.47;45.24
38880;BME280;25887;30.194;-97.880;2023-02-19T10:07:42;99149.22;;;13.50;45.36
38880;BME280;25887;30.194;-97.880;2023-02-19T10:12:38;99159.56;;;13.56;45.81
38880;BME280;25887;30.194;-97.880;2023-02-19T10:18:00;99165.56;;;13.61;45.65
38880;BME280;25887;30.194;-97.880;2023-02-19T10:20:27;99163.00;;;13.64;45.61
38880;BME280;25887;30.194;-97.880;2023-02-19T10:22:56;99146.63;;;13.66;45.81
38880;BME280;25887;30.194;-97.880;2023-02-19T10:25:23;99140.59;;;13.69;45.58
38880;BME280;25887;30.194;-97.880;2023-02-19T10:27:49;99144.06;;;13.71;45.40
38880;BME280;25887;30.194;-97.880;2023-02-19T10:30:22;99139.75;;;13.75;45.29
38880;BME280;25887;30.194;-97.880;2023-02-19T10:33:02;99135.44;;;13.77;45.48
38880;BME280;25887;30.194;-97.880;2023-02-19T10:35:36;99135.44;;;13.78;46.09
38880;BME280;25887;30.194;-97.880;2023-02-19T10:38:03;99132.88;;;13.78;45.74
38880;BME280;25887;30.194;-97.880;2023-02-19T10:40:57;99134.59;;;13.79;45.62
38880;BME280;25887;30.194;-97.880;2023-02-19T10:43:24;99135.44;;;13.81;45.87
38880;BME280;25887;30.194;-97.880;2023-02-19T10:46:06;99128.53;;;13.83;45.53
38880;BME280;25887;30.194;-97.880;2023-02-19T10:48:37;99122.50;;;13.84;45.49
38880;BME280;25887;30.194;-97.880;2023-02-19T10:51:06;99115.63;;;13.85;45.86
38880;BME280;25887;30.194;-97.880;2023-02-19T10:53:46;99101.84;;;13.84;45.79
38880;BME280;25887;30.194;-97.880;2023-02-19T10:56:30;99109.63;;;13.86;46.04
38880;BME280;25887;30.194;-97.880;2023-02-19T11:02:22;99110.47;;;13.88;46.35
38880;BME280;25887;30.194;-97.880;2023-02-19T11:04:41;99113.03;;;13.89;46.50
38880;BME280;25887;30.194;-97.880;2023-02-19T11:07:26;99108.72;;;13.91;46.34
38880;BME280;25887;30.194;-97.880;2023-02-19T11:09:52;99110.44;;;13.92;46.56
38880;BME280;25887;30.194;-97.880;2023-02-19T11:12:31;99118.22;;;13.94;46.18
38880;BME280;25887;30.194;-97.880;2023-02-19T11:18:04;99126.81;;;13.96;46.40
38880;BME280;25887;30.194;-97.880;2023-02-19T11:20:32;99108.72;;;13.98;45.87
38880;BME280;25887;30.194;-97.880;2023-02-19T11:25:50;99113.88;;;13.99;46.23
38880;BME280;25887;30.194;-97.880;2023-02-19T11:31:48;99112.19;;;14.01;45.82
38880;BME280;25887;30.194;-97.880;2023-02-19T11:33:53;99108.69;;;14.01;46.00
38880;BME280;25887;30.194;-97.880;2023-02-19T11:36:25;99110.44;;;14.02;45.90
38880;BME280;25887;30.194;-97.880;2023-02-19T11:38:52;99113.88;;;14.01;46.07
38880;BME280;25887;30.194;-97.880;2023-02-19T11:57:40;99114.72;;;14.00;45.95
38880;BME280;25887;30.194;-97.880;2023-02-19T12:00:24;99128.53;;;13.97;45.81
38880;BME280;25887;30.194;-97.880;2023-02-19T12:02:59;99130.25;;;13.95;45.98
38880;BME280;25887;30.194;-97.880;2023-02-19T12:10:47;99134.56;;;13.91;45.92
38880;BME280;25887;30.194;-97.880;2023-02-19T12:24:22;99149.19;;;13.83;45.84
38880;BME280;25887;30.194;-97.880;2023-02-19T12:27:01;99153.50;;;13.81;46.05
38880;BME280;25887;30.194;-97.880;2023-02-19T12:32:02;99146.63;;;13.80;45.90
38880;BME280;25887;30.194;-97.880;2023-02-19T12:37:10;99138.03;;;13.75;46.00
38880;BME280;25887;30.194;-97.880;2023-02-19T12:39:58;99150.94;;;13.72;45.68
38880;BME280;25887;30.194;-97.880;2023-02-19T12:43:05;99138.88;;;13.68;46.09
38880;BME280;25887;30.194;-97.880;2023-02-19T12:45:41;99143.19;;;13.64;46.16
38880;BME280;25887;30.194;-97.880;2023-02-19T12:50:43;99144.06;;;13.59;46.04
38880;BME280;25887;30.194;-97.880;2023-02-19T12:55:40;99147.50;;;13.52;46.12
38880;BME280;25887;30.194;-97.880;2023-02-19T13:01:06;99173.28;;;13.46;46.37
38880;BME280;25887;30.194;-97.880;2023-02-19T13:03:36;99161.25;;;13.45;45.94
38880;BME280;25887;30.194;-97.880;2023-02-19T13:06:31;99154.38;;;13.42;46.00
38880;BME280;25887;30.194;-97.880;2023-02-19T13:12:03;99160.38;;;13.38;46.22
38880;BME280;25887;30.194;-97.880;2023-02-19T13:14:33;99162.97;;;13.36;46.18
38880;BME280;25887;30.194;-97.880;2023-02-19T13:19:45;99172.44;;;13.31;46.24
38880;BME280;25887;30.194;-97.880;2023-02-19T13:22:23;99172.41;;;13.27;46.19
38880;BME280;25887;30.194;-97.880;2023-02-19T13:25:10;99179.28;;;13.22;46.40
38880;BME280;25887;30.194;-97.880;2023-02-19T13:28:02;99171.53;;;13.20;46.16
38880;BME280;25887;30.194;-97.880;2023-02-19T13:30:52;99167.22;;;13.18;46.05
38880;BME280;25887;30.194;-97.880;2023-02-19T13:33:36;99168.06;;;13.17;46.15
38880;BME280;25887;30.194;-97.880;2023-02-19T13:36:10;99172.38;;;13.16;46.46
38880;BME280;25887;30.194;-97.880;2023-02-19T13:38:49;99176.66;;;13.16;46.51
38880;BME280;25887;30.194;-97.880;2023-02-19T13:41:19;99174.94;;;13.16;46.36
38880;BME280;25887;30.194;-97.880;2023-02-19T13:43:51;99173.22;;;13.18;46.24
38880;BME280;25887;30.194;-97.880;2023-02-19T13:46:18;99173.25;;;13.21;46.34
38880;BME280;25887;30.194;-97.880;2023-02-19T13:48:44;99183.56;;;13.23;46.66
38880;BME280;25887;30.194;-97.880;2023-02-19T13:53:48;99186.16;;;13.29;46.66
38880;BME280;25887;30.194;-97.880;2023-02-19T14:04:18;99207.72;;;13.38;46.84
38880;BME280;25887;30.194;-97.880;2023-02-19T14:07:36;99206.00;;;13.42;46.57
38880;BME280;25887;30.194;-97.880;2023-02-19T14:12:04;99218.03;;;13.54;46.57
38880;BME280;25887;30.194;-97.880;2023-02-19T14:17:43;99202.59;;;13.63;46.73
38880;BME280;25887;30.194;-97.880;2023-02-19T14:30:48;99224.09;;;13.99;47.21
38880;BME280;25887;30.194;-97.880;2023-02-19T14:33:15;99218.09;;;14.09;47.26
38880;BME280;25887;30.194;-97.880;2023-02-19T14:35:53;99208.59;;;14.18;47.40
38880;BME280;25887;30.194;-97.880;2023-02-19T14:41:04;99229.25;;;14.57;47.10
38880;BME280;25887;30.194;-97.880;2023-02-19T14:43:31;99250.75;;;14.74;47.19
38880;BME280;25887;30.194;-97.880;2023-02-19T14:46:06;99249.84;;;14.78;47.31
38880;BME280;25887;30.194;-97.880;2023-02-19T14:48:36;99260.19;;;14.84;47.86
38880;BME280;25887;30.194;-97.880;2023-02-19T14:51:09;99267.06;;;14.96;47.71
38880;BME280;25887;30.194;-97.880;2023-02-19T14:53:38;99260.09;;;15.09;47.81
38880;BME280;25887;30.194;-97.880;2023-02-19T14:56:27;99238.44;;;15.29;47.69
38880;BME280;25887;30.194;-97.880;2023-02-19T14:59:19;99245.31;;;15.35;48.02
38880;BME280;25887;30.194;-97.880;2023-02-19T15:01:52;99281.56;;;15.41;48.33
38880;BME280;25887;30.194;-97.880;2023-02-19T15:04:25;99291.00;;;15.45;48.30
38880;BME280;25887;30.194;-97.880;2023-02-19T15:07:04;99290.09;;;15.52;48.25
38880;BME280;25887;30.194;-97.880;2023-02-19T15:09:34;99284.03;;;15.59;48.35
38880;BME280;25887;30.194;-97.880;2023-02-19T15:12:01;99288.34;;;15.67;48.23
38880;BME280;25887;30.194;-97.880;2023-02-19T15:14:28;99278.81;;;15.73;48.36
38880;BME280;25887;30.194;-97.880;2023-02-19T15:17:32;99283.06;;;15.82;48.40
38880;BME280;25887;30.194;-97.880;2023-02-19T15:19:59;99300.25;;;15.92;48.55
38880;BME280;25887;30.194;-97.880;2023-02-19T15:22:27;99293.28;;;16.00;48.72
38880;BME280;25887;30.194;-97.880;2023-02-19T15:24:59;99299.25;;;16.13;48.63
38880;BME280;25887;30.194;-97.880;2023-02-19T15:27:25;99291.31;;;16.31;48.62
38880;BME280;25887;30.194;-97.880;2023-02-19T15:29:56;99292.91;;;16.48;48.51
38880;BME280;25887;30.194;-97.880;2023-02-19T15:32:23;99282.41;;;16.61;49.04
38880;BME280;25887;30.194;-97.880;2023-02-19T15:34:54;99287.50;;;16.72;49.14
38880;BME280;25887;30.194;-97.880;2023-02-19T15:37:20;99279.63;;;16.80;49.00
38880;BME280;25887;30.194;-97.880;2023-02-19T15:39:53;99280.41;;;16.91;48.82
38880;BME280;25887;30.194;-97.880;2023-02-19T15:42:24;99281.13;;;17.02;48.82
38880;BME280;25887;30.194;-97.880;2023-02-19T15:44:53;99301.78;;;17.13;48.58